Nearby METAR Reports

 

ESTA - Ängelholm, Sweden
Distance from station: SSV 17km
Uppdaterad: 2021-05-12 22:50
Mist, Genommulet
Mist, Genommulet
 Vind från NV
Vind: NV 11 km/h
Temperatur: 11°C
Daggpunkt: 10°C
Luftfuktighet: 94%
Barometer: 1008 hPa
Summering: Mist
Clouds: Genommulet
Visibility: 3 km
Cloud details: Genommulet 61 m
2021/05/12 20:50 ESTA 122050Z AUTO 31006KT 3200 BR OVC002/// 11/10 Q1008
ESMT - Halmstad, Sweden
Distance from station: N 26km
Uppdaterad: 2021-05-12 22:50
Genommulet
Genommulet
 Vind från NNV
Vind: NNV 11 km/h
Temperatur: 11°C
Daggpunkt: 10°C
Luftfuktighet: 94%
Barometer: 1008 hPa
Clouds: Genommulet
Visibility: 10 km
Cloud details: Genommulet 183 m
2021/05/12 20:50 ESMT 122050Z AUTO 34006KT 300V010 9999 OVC006/// 11/10 Q1008
 
ESTL - Ljungbyhed, Sweden
Distance from station: SSO 45km
Uppdaterad: 2021-05-12 22:50
Mist, Genommulet
Mist, Genommulet
 Vind från NV
Vind: NV 15 km/h
Temperatur: 11°C
Daggpunkt: 11°C
Luftfuktighet: 100%
Barometer: 1008 hPa
Summering: Mist
Clouds: Genommulet
Visibility: 7 km
Cloud details: Genommulet 91 m
2021/05/12 20:50 ESTL 122050Z AUTO 31008KT 7000 BR OVC003/// 11/11 Q1008
EKCH - Copenhagen/Kastrup, Denmark
Distance from station: S 92km
Uppdaterad: 2021-05-12 22:50
Övervägande molnigt
Övervägande molnigt
 Vind från NNV
Vind: NNV 13 km/h
Temperatur: 13°C
Daggpunkt: 11°C
Luftfuktighet: 88%
Barometer: 1008 hPa
Clouds: Övervägande molnigt
Visibility: 10 km
Cloud details: Övervägande molnigt 244 m
2021/05/12 20:50 EKCH 122050Z 33007KT 9999 BKN008 13/11 Q1008 TEMPO BKN012
 
ESMK - Kristianstad/Everöd, Sweden
Distance from station: SO 93km
Uppdaterad: 2021-05-12 22:50
Klart
Klart
 Vind från VNV
Vind: VNV 11 km/h
Temperatur: 12°C
Daggpunkt: 11°C
Luftfuktighet: 94%
Barometer: 1007 hPa
Clouds: Klart
Visibility: 10 km
2021/05/12 20:50 ESMK 122050Z AUTO 29006KT 9999 NCD 12/11 Q1007
ESMS - Malmö/Sturup, Sweden
Distance from station: SSO 104km
Uppdaterad: 2021-05-12 22:50
Genommulet
Genommulet
 Vind från NNV
Vind: NNV 19 km/h
Temperatur: 12°C
Daggpunkt: 10°C
Luftfuktighet: 88%
Barometer: 1007 hPa
Clouds: Genommulet
Visibility: 10 km
Cloud details: Genommulet 274 m
2021/05/12 20:50 ESMS 122050Z 33010KT 9999 OVC009 12/10 Q1007
 
EKRK - Copenhagen/Roskilde, Denmark
Distance from station: SSV 108km
Uppdaterad: 2021-05-12 22:50
Mist, Genommulet
Mist, Genommulet
 Vind från NV
Vind: NV 13 km/h
Temperatur: 12°C
Daggpunkt: 11°C
Luftfuktighet: 94%
Barometer: 1008 hPa
Summering: Mist
Clouds: Genommulet
Visibility: 4 km
Cloud details: Genommulet 152 m
2021/05/12 20:50 EKRK 122050Z AUTO 32007KT 4400 BR OVC005/// 12/11 Q1008
ESMX - Växjö/Kronoberg, Sweden
Distance from station: ONO 124km
Uppdaterad: 2021-05-12 22:50
Klart
Klart
 Vind från S
Vind: S 4 km/h
Temperatur: 14°C
Daggpunkt: 11°C
Luftfuktighet: 82%
Barometer: 1007 hPa
Clouds: Klart
Visibility: 10 km
2021/05/12 20:50 ESMX 122050Z AUTO 17002KT 9999 NCD 14/11 Q1007
 
EKAH - Tirstrup, Denmark
Distance from station: V 141km
Uppdaterad: 2021-05-12 22:50
Genommulet
Genommulet
 Vind från VNV
Vind: VNV 11 km/h
Temperatur: 11°C
Daggpunkt: 10°C
Luftfuktighet: 94%
Barometer: 1010 hPa
Clouds: Genommulet
Visibility: 10 km
Cloud details: Genommulet 183 m
2021/05/12 20:50 EKAH 122050Z AUTO 30006KT 9999 OVC006/// 11/10 Q1010
ESGG - Göteborg/Landvetter, Sweden
Distance from station: NNV 142km
Uppdaterad: 2021-05-12 22:50
Genommulet
Genommulet
 Vind från VNV
Vind: VNV 7 km/h
Temperatur: 10°C
Wind Chill: 9°C
Daggpunkt: 8°C
Luftfuktighet: 88%
Barometer: 1008 hPa
Clouds: Genommulet
Visibility: 10 km
Cloud details: Genommulet 183 m
2021/05/12 20:50 ESGG 122050Z 30004KT 9999 OVC006 10/08 Q1008
 
ESDF - Ronneby, Sweden
Distance from station: O 147km
Uppdaterad: 2021-05-12 22:50
Klart
Klart
 Vind från OSO
Vind: OSO 6 km/h
Temperatur: 11°C
Daggpunkt: 10°C
Luftfuktighet: 94%
Barometer: 1007 hPa
Clouds: Klart
Visibility: 10 km
2021/05/12 20:50 ESDF 122050Z AUTO 11003KT 9999 NCD 11/10 Q1007
ESGJ - Jönköping Airport, Sweden
Distance from station: NNO 164km
Uppdaterad: 2021-05-12 22:50
Few Clouds
Few Clouds
 Vind från NV
Vind: NV 7 km/h
Temperatur: 15°C
Daggpunkt: 13°C
Luftfuktighet: 88%
Barometer: 1007 hPa
Clouds: Few Clouds
Visibility: 10 km
Cloud details: Few Clouds 732 m
2021/05/12 20:50 ESGJ 122050Z 31004KT 9999 FEW024 15/13 Q1007
 
EKRN - Rönne, Denmark
Distance from station: SO 191km
Uppdaterad: 2021-05-12 22:50
Mist, Övervägande molnigt
Mist, Övervägande molnigt
 Vind från calm
Vind: Vindstilla
Temperatur: 9°C
Daggpunkt: 8°C
Luftfuktighet: 94%
Barometer: 1007 hPa
Summering: Mist
Clouds: Övervägande molnigt
Visibility: 1 km
Cloud details: Övervägande molnigt 122 m
2021/05/12 20:50 EKRN 122050Z AUTO 00000KT 1100 R11/P1500U R29/P1500D BR BKN004/// 09/08 Q1007
EKOD - Odense/Beldringe, Denmark
Distance from station: VSV 193km
Uppdaterad: 2021-05-12 19:50
NOT Current
Övervägande molnigt
Övervägande molnigt
 Vind från V
Vind: V 19 km/h
Temperatur: 13°C
Daggpunkt: 11°C
Luftfuktighet: 88%
Barometer: 1009 hPa
Clouds: Övervägande molnigt
Visibility: 10 km
Cloud details: Delvis molnigt 427 m
Övervägande molnigt 549 m
Övervägande molnigt 640 m
2021/05/12 17:50 EKOD 121750Z 28010KT 250V310 9999 SCT014 BKN018 BKN021 13/11 Q1009
 
EKYT - AAlborg, Denmark
Distance from station: VNV 199km
Uppdaterad: 2021-05-12 22:50
Övervägande molnigt
Övervägande molnigt
 Vind från VNV
Vind: VNV 7 km/h
Temperatur: 10°C
Wind Chill: 9°C
Daggpunkt: 9°C
Luftfuktighet: 94%
Barometer: 1009 hPa
Clouds: Övervägande molnigt
Visibility: 10 km
Cloud details: Övervägande molnigt 579 m
Övervägande molnigt 671 m
2021/05/12 20:50 EKYT 122050Z 29004KT 9999 BKN019 BKN022 10/09 Q1009
ESMQ - Kalmar, Sweden
Distance from station: O 211km
Uppdaterad: 2021-05-12 22:50
Klart
Klart
 Vind från NNO
Vind: NNO 4 km/h
Temperatur: 11°C
Daggpunkt: 9°C
Luftfuktighet: 88%
Barometer: 1007 hPa
Clouds: Klart
Visibility: 10 km
2021/05/12 20:50 ESMQ 122050Z AUTO 03002KT 9999 NCD 11/09 Q1007
 
ESGT - Trollhättan, Sweden
Distance from station: N 212km
Uppdaterad: 2021-05-12 22:50
Övervägande molnigt
Övervägande molnigt
 Vind från VSV
Vind: VSV 9 km/h
Temperatur: 12°C
Daggpunkt: 9°C
Luftfuktighet: 82%
Barometer: 1008 hPa
Clouds: Övervägande molnigt
Visibility: 10 km
Cloud details: Övervägande molnigt 1676 m
Övervägande molnigt 4267 m
2021/05/12 20:50 ESGT 122050Z AUTO 24005KT 9999 BKN055/// BKN140/// 12/09 Q1008